首页
METAR-TAF:

METAR-TAF

机场 :

Greenwood, 密西西比州, 美国

纬度: 33-29-33N, 经度: 090-05-01W, 海拔: 47米

当前天气观测

该预报发布于35分钟前的02:53 UTC
风速3节,风向北转西北
温度 12°C
湿度 82%
气压 1018 hPa
能見度: 16.1公里
天空无云

METAR: KGWO 260253Z AUTO 34003KT 10SM CLR 12/09 A3007 RMK AO2 SLP180 T01170089 51021

时间: 21:28 (03:28 UTC)

预报

该预报发布于3小时和42分钟前的23:46 UTC
预报有效从26日的 00点(UTC)到 26日的 24点(UTC)
风速3节,风向北转西北
能見度: 10公里
天空无云

TAF: KGWO 252346Z 2600/2624 33003KT P6SM SKC

超过4000个机场的气象观测和天气预报(METAR&TAF报告)。

可查询的气象台以黄色和红色小点在地图上表示。

将鼠标移到小点上方,可查看气象台名称。

然后点击查看天气观测和预报。

如需切换地图:点击带黑十字的绿色按钮放大地图;点击带横线的绿色按钮缩小地图;或者点击绿色箭头查看邻近地区的地图。


METAR-TAF: